KSSC/SSC METAR and TAF weather

Enter ICAO airport designator
Station Type Date Time Source
KSSC METAR 2021/02/27 01:56 UTC NOAA

KSSC 270156Z AUTO 02008KT 10SM BKN060 12/08 A3017 RMK AO2 SLP218 T01180075 $


Station Type Date Time Source
KSSC Decoded METAR 2021/02/27 01:56 UTC NOAA

Shaw Air Force Base, SC, United States (KSSC) 33-58N 080-29W 73M
Feb 26, 2021 - 08:56 PM EST / 2021.02.27 0156 UTC
Wind: from the NNE (020 degrees) at 9 MPH (8 KT):0
Visibility: 10 mile(s):0
Sky conditions: mostly cloudy
Temperature: 53.2 F (11.8 C)
Dew Point: 45.5 F (7.5 C)
Relative Humidity: 74%
Pressure (altimeter): 30.17 in. Hg (1021 hPa)
ob: KSSC 270156Z AUTO 02008KT 10SM BKN060 12/08 A3017 RMK AO2 SLP218 T01180075
cycle: 2

Station Type Date Time Source
KSSC TAF 2021/02/27 00:08 UTC NOAA

TAF KSSC 270000Z 2700/2806 05006KT 9999 BKN085 QNH3015INS
TEMPO 2701/2704 8000 -RA BKN008 OVC020
BECMG 2704/2705 08004KT 3200 -DZ BR BKN004 OVC010 QNH3018INS
BECMG 2710/2711 23006KT 8000 BR BKN008 OVC015 QNH3015INS
BECMG 2714/2715 22009KT 9999 NSW BKN035 BKN250 QNH3016INS
BECMG 2718/2719 23005KT 9999 SCT040 BKN250 QNH3020INS TX17/2716Z TN10/2711Z LAST NO
AMDS AFT 2700 NEXT 2708

Example: see airport list